createdAt,value
2022-11-19T00:05:44.462Z,4.8
2022-11-19T00:11:09.429Z,5
2022-11-19T00:16:39.486Z,4.6
2022-11-19T00:22:02.835Z,4.7
2022-11-19T00:27:30.270Z,4.6
2022-11-19T00:33:13.831Z,4.2
2022-11-19T00:38:30.510Z,3.6
2022-11-19T00:44:22.231Z,3.7
2022-11-19T00:49:58.493Z,4.1
2022-11-19T00:55:16.649Z,4.2
2022-11-19T01:00:59.086Z,4
2022-11-19T01:06:08.156Z,4
2022-11-19T01:11:53.457Z,4.2
2022-11-19T01:17:26.580Z,4.5
2022-11-19T01:22:43.741Z,4.4
2022-11-19T01:28:39.083Z,4.3
2022-11-19T01:33:50.003Z,4.2
2022-11-19T01:39:46.957Z,4.1
2022-11-19T01:45:05.136Z,4
2022-11-19T01:50:29.538Z,4.1
2022-11-19T01:55:57.021Z,4.1
2022-11-19T02:01:49.286Z,4.2
2022-11-19T02:07:21.980Z,4
2022-11-19T02:12:36.250Z,4.1
2022-11-19T02:18:04.148Z,3.9
2022-11-19T02:23:45.889Z,3.9
2022-11-19T02:29:07.248Z,3.9
2022-11-19T02:34:54.900Z,3.6
2022-11-19T02:40:32.282Z,3.7
2022-11-19T02:45:45.742Z,3.8
2022-11-19T02:51:20.297Z,3.8
2022-11-19T02:56:49.373Z,3.9
2022-11-19T03:02:42.472Z,3.9
2022-11-19T03:07:56.744Z,4
2022-11-19T03:13:32.001Z,4.1
2022-11-19T03:19:17.832Z,4
2022-11-19T03:24:37.194Z,4.2
2022-11-19T03:30:14.519Z,4.2
2022-11-19T03:35:55.540Z,4.2
2022-11-19T03:41:10.248Z,4.2
2022-11-19T03:46:41.024Z,4.1
2022-11-19T03:52:26.321Z,3.9
2022-11-19T03:57:46.340Z,3.7
2022-11-19T04:03:20.954Z,3.8
2022-11-19T04:09:09.847Z,3.9
2022-11-19T04:14:17.565Z,3.9
2022-11-19T04:19:51.678Z,3.8
2022-11-19T04:25:38.615Z,3.9
2022-11-19T04:30:52.602Z,3.9
2022-11-19T04:36:43.884Z,3.9
2022-11-19T04:42:15.416Z,4
2022-11-19T04:47:49.920Z,3.9
2022-11-19T04:53:18.851Z,3.9
2022-11-19T04:58:48.248Z,4.1
2022-11-19T05:04:12.677Z,4.1
2022-11-19T05:09:45.199Z,4.1
2022-11-19T05:15:28.924Z,4.1
2022-11-19T05:21:03.654Z,4
2022-11-19T05:26:21.394Z,3.9
2022-11-19T05:32:04.293Z,3.8
2022-11-19T05:37:30.982Z,3.8
2022-11-19T05:43:14.007Z,3.9
2022-11-19T05:48:36.853Z,3.8
2022-11-19T05:53:57.321Z,3.8
2022-11-19T05:59:42.405Z,3.9
2022-11-19T06:05:02.965Z,3.8
2022-11-19T06:10:43.325Z,3.8
2022-11-19T06:16:13.045Z,3.9
2022-11-19T06:21:49.122Z,4
2022-11-19T06:27:27.107Z,4.1
2022-11-19T06:32:40.754Z,3.6
2022-11-19T06:38:30.489Z,3.7
2022-11-19T06:44:00.958Z,3.8
2022-11-19T06:49:37.267Z,4.1
2022-11-19T06:54:45.055Z,4.3
2022-11-19T07:00:19.884Z,4.4
2022-11-19T07:06:02.243Z,4.5
2022-11-19T07:11:32.036Z,4.5
2022-11-19T07:16:57.642Z,4.5
2022-11-19T07:22:35.291Z,4.5
2022-11-19T07:28:16.493Z,4.6
2022-11-19T07:33:48.264Z,4.5
2022-11-19T07:39:23.357Z,4.6
2022-11-19T07:44:37.976Z,4.7
2022-11-19T07:50:13.448Z,4.7
2022-11-19T07:55:45.371Z,4.5
2022-11-19T08:01:27.766Z,4.5
2022-11-19T08:06:56.022Z,4.3
2022-11-19T08:12:32.707Z,4.8
2022-11-19T08:23:32.662Z,5.3
2022-11-19T08:29:00.095Z,6
2022-11-19T08:34:34.890Z,6
2022-11-19T08:39:54.877Z,5.7
2022-11-19T08:45:26.869Z,5.7
2022-11-19T08:51:17.714Z,6
2022-11-19T08:56:51.968Z,6.5
2022-11-19T09:02:26.586Z,7.3
2022-11-19T09:07:42.403Z,8.1
2022-11-19T09:13:22.500Z,7.1
2022-11-19T09:19:04.557Z,7
2022-11-19T09:24:18.207Z,7.4
2022-11-19T09:30:04.656Z,7
2022-11-19T09:35:26.541Z,7.2
2022-11-19T09:40:56.350Z,7.3
2022-11-19T09:46:49.231Z,7.5
2022-11-19T09:51:57.138Z,7.6
2022-11-19T09:57:36.775Z,8.5
2022-11-19T10:03:11.826Z,9.2
2022-11-19T10:08:56.773Z,9.5
2022-11-19T10:14:07.728Z,9
2022-11-19T10:20:02.665Z,8.9
2022-11-19T10:25:36.374Z,8.6
2022-11-19T10:31:02.665Z,8.6
2022-11-19T10:36:15.365Z,9.3
2022-11-19T10:41:58.793Z,9.8
2022-11-19T10:47:35.364Z,9.2
2022-11-19T10:53:14.864Z,8.9
2022-11-19T10:58:31.287Z,8.9
2022-11-19T11:04:19.673Z,9.1
2022-11-19T11:09:49.600Z,9.1
2022-11-19T11:15:29.279Z,9.1
2022-11-19T11:20:38.725Z,10.2
2022-11-19T11:26:22.575Z,9.5
2022-11-19T11:31:46.926Z,9.1
2022-11-19T11:37:26.551Z,8.4
2022-11-19T11:42:50.457Z,8.2
2022-11-19T11:48:32.315Z,8.2
2022-11-19T11:54:10.602Z,8.4
2022-11-19T11:59:47.020Z,8.6
2022-11-19T12:05:04.858Z,8.6
2022-11-19T12:10:40.568Z,8.6
2022-11-19T12:16:18.922Z,8.8
2022-11-19T12:21:55.692Z,9
2022-11-19T12:27:12.952Z,8.8
2022-11-19T12:32:44.408Z,9
2022-11-19T12:38:42.137Z,9.3
2022-11-19T12:43:56.517Z,9
2022-11-19T12:49:49.087Z,8.8
2022-11-19T12:55:09.574Z,9
2022-11-19T13:00:45.631Z,8.8
2022-11-19T13:06:14.129Z,8.8
2022-11-19T13:11:56.677Z,8.9
2022-11-19T13:17:06.325Z,8.8
2022-11-19T13:23:04.592Z,9
2022-11-19T13:28:23.161Z,8.9
2022-11-19T13:33:56.359Z,8.9
2022-11-19T13:39:37.315Z,9.1
2022-11-19T13:45:15.910Z,9.2
2022-11-19T13:50:23.332Z,9
2022-11-19T13:55:59.660Z,9
2022-11-19T14:01:47.436Z,8.8
2022-11-19T14:07:19.888Z,8.8
2022-11-19T14:12:41.540Z,8.8
2022-11-19T14:18:35.697Z,8.8
2022-11-19T14:23:45.119Z,8.6
2022-11-19T14:29:18.659Z,8.7
2022-11-19T14:34:56.004Z,8.7
2022-11-19T14:40:23.118Z,8.5
2022-11-19T14:46:14.540Z,8.5
2022-11-19T14:51:44.846Z,8.3
2022-11-19T14:57:00.085Z,8.4
2022-11-19T15:02:36.370Z,8.1
2022-11-19T15:08:05.678Z,8.1
2022-11-19T15:13:40.585Z,8.2
2022-11-19T15:19:25.946Z,7.9
2022-11-19T15:25:11.051Z,7.9
2022-11-19T15:30:23.860Z,7.8
2022-11-19T15:36:16.565Z,7.7
2022-11-19T15:41:43.303Z,7.5
2022-11-19T15:47:21.623Z,7.6
2022-11-19T15:52:35.319Z,7.6
2022-11-19T15:58:21.948Z,7.4
2022-11-19T16:03:49.333Z,7.5
2022-11-19T16:09:29.564Z,7.3
2022-11-19T16:15:03.152Z,7.4
2022-11-19T16:20:28.285Z,7.6
2022-11-19T16:26:18.302Z,7.4
2022-11-19T16:31:44.937Z,7.6
2022-11-19T16:37:11.467Z,7.5
2022-11-19T16:42:46.579Z,7.5
2022-11-19T16:48:22.630Z,7.3
2022-11-19T16:53:58.538Z,7.4
2022-11-19T16:59:21.157Z,7.4
2022-11-19T17:04:59.390Z,7.4
2022-11-19T17:10:22.795Z,7.2
2022-11-19T17:15:51.055Z,7.4
2022-11-19T17:21:37.678Z,7.2
2022-11-19T17:27:08.831Z,7.2
2022-11-19T17:32:33.374Z,6.9
2022-11-19T17:38:17.801Z,6.9
2022-11-19T17:43:51.342Z,7.3
2022-11-19T17:49:27.461Z,7.3
2022-11-19T17:55:01.034Z,7.6
2022-11-19T18:00:22.565Z,7.4
2022-11-19T18:06:09.807Z,7.8
2022-11-19T18:11:44.265Z,7.6
2022-11-19T18:17:02.502Z,7.5
2022-11-19T18:22:45.438Z,7.6
2022-11-19T18:28:29.252Z,7.3
2022-11-19T18:33:41.407Z,7.2
2022-11-19T18:39:12.089Z,7
2022-11-19T18:44:48.104Z,7.2
2022-11-19T18:50:30.013Z,7.1
2022-11-19T18:56:11.681Z,7
2022-11-19T19:01:44.636Z,7
2022-11-19T19:07:08.093Z,6.9
2022-11-19T19:12:51.107Z,7
2022-11-19T19:18:20.344Z,7.1
2022-11-19T19:23:52.063Z,7
2022-11-19T19:29:12.121Z,7.2
2022-11-19T19:34:48.565Z,6.9
2022-11-19T19:40:32.616Z,6.8
2022-11-19T19:46:13.655Z,6.7
2022-11-19T19:51:47.627Z,6.7
2022-11-19T19:56:59.315Z,7
2022-11-19T20:02:51.681Z,7
2022-11-19T20:08:15.465Z,7.3
2022-11-19T20:13:35.165Z,7.4
2022-11-19T20:19:09.881Z,7.1
2022-11-19T20:24:41.474Z,7.2
2022-11-19T20:30:41.937Z,7
2022-11-19T20:35:50.487Z,6.8
2022-11-19T20:41:44.980Z,6.5
2022-11-19T20:46:55.183Z,6.4
2022-11-19T20:52:37.713Z,6.5
2022-11-19T20:57:58.164Z,6.2
2022-11-19T21:03:51.480Z,6.1
2022-11-19T21:09:12.244Z,6.2
2022-11-19T21:14:48.400Z,6.2
2022-11-19T21:20:29.926Z,6.2
2022-11-19T21:26:01.911Z,6.1
2022-11-19T21:31:10.281Z,5.5
2022-11-19T21:36:58.353Z,4.9
2022-11-19T21:42:26.795Z,4.5
2022-11-19T21:47:56.475Z,4.5
2022-11-19T21:53:45.342Z,4.5
2022-11-19T21:58:57.399Z,4.8
2022-11-19T22:04:44.359Z,4.7
2022-11-19T22:09:55.539Z,4.6
2022-11-19T22:15:53.801Z,4.8
2022-11-19T22:21:05.846Z,5
2022-11-19T22:26:45.833Z,5.5
2022-11-19T22:32:26.855Z,5.7
2022-11-19T22:37:42.007Z,5.3
2022-11-19T22:43:23.027Z,5.7
2022-11-19T22:48:50.457Z,5.7
2022-11-19T22:54:17.122Z,5.7
2022-11-19T22:59:52.115Z,5.8
2022-11-19T23:05:41.122Z,5.7
2022-11-19T23:10:53.909Z,5.8
2022-11-19T23:16:33.322Z,5.4
2022-11-19T23:22:09.423Z,5
2022-11-19T23:27:43.663Z,4.4
2022-11-19T23:33:22.871Z,4.2
2022-11-19T23:38:41.763Z,4.2
2022-11-19T23:44:22.403Z,4.1
2022-11-19T23:50:01.289Z,4.4
2022-11-19T23:55:13.676Z,4.4
